Time;durP1;ratioP1;P1;durP2;ratioP2;P2;SDS_P1;SDS_P2;PMS_P1;PMS_P2;Temp;Humidity;BMP_temperature;BMP_pressure;BME280_temperature;BME280_humidity;BME280_pressure;Samples;Min_cycle;Max_cycle;Signal;HPM_P1;HPM_P2
2023/04/19 00:02:18;;;;;;;0.70;0.70;;;2.30;99.90;;;;;;5073851;28;20231;-67
2023/04/19 00:05:23;;;;;;;0.80;0.80;;;2.30;99.90;;;;;;5052618;28;20213;-67
2023/04/19 00:08:26;;;;;;;2.58;1.52;;;2.20;99.90;;;;;;5054120;28;20235;-67
2023/04/19 00:11:29;;;;;;;0.70;0.70;;;2.30;99.90;;;;;;5054219;28;20201;-67
2023/04/19 00:14:32;;;;;;;0.80;0.80;;;2.30;99.90;;;;;;5053983;28;20197;-67
2023/04/19 00:17:35;;;;;;;0.80;0.80;;;2.20;99.90;;;;;;5070828;28;20254;-67
2023/04/19 00:20:39;;;;;;;0.80;0.80;;;2.20;99.90;;;;;;5055801;28;20240;-67
2023/04/19 00:23:41;;;;;;;0.80;0.80;;;2.20;99.90;;;;;;5073728;28;20215;-67
2023/04/19 00:26:45;;;;;;;0.70;0.70;;;2.20;99.90;;;;;;5073534;28;20192;-66
2023/04/19 00:29:48;;;;;;;0.88;0.88;;;2.20;99.90;;;;;;5055727;28;20667;-67
2023/04/19 00:32:51;;;;;;;0.70;0.70;;;2.30;99.90;;;;;;5073499;28;20709;-67
2023/04/19 00:35:54;;;;;;;0.70;0.70;;;2.30;99.90;;;;;;5054895;28;20675;-68
2023/04/19 00:38:57;;;;;;;0.73;0.73;;;2.40;99.90;;;;;;5072777;28;20223;-67
2023/04/19 00:42:01;;;;;;;0.68;0.68;;;2.30;99.90;;;;;;5072641;28;20200;-67
2023/04/19 00:45:03;;;;;;;0.70;0.70;;;2.30;99.90;;;;;;5072836;28;20671;-66
2023/04/19 00:48:07;;;;;;;0.80;0.80;;;2.20;99.90;;;;;;5072931;28;20228;-67
2023/04/19 00:51:10;;;;;;;0.63;0.63;;;2.10;99.90;;;;;;5034291;28;20220;-67
2023/04/19 00:54:13;;;;;;;0.80;0.80;;;2.00;99.90;;;;;;5052514;28;20224;-67
2023/04/19 00:57:16;;;;;;;0.80;0.80;;;1.90;99.90;;;;;;5052423;28;20319;-67
2023/04/19 01:00:19;;;;;;;0.80;0.80;;;1.80;99.90;;;;;;5052413;28;20650;-67
2023/04/19 01:03:25;;;;;;;0.70;0.70;;;1.70;99.90;;;;;;5063665;23;20235;-69
2023/04/19 01:06:29;;;;;;;0.80;0.80;;;1.60;99.90;;;;;;5034641;28;20213;-69
2023/04/19 01:09:32;;;;;;;0.60;0.60;;;1.50;99.90;;;;;;5052345;28;20189;-69
2023/04/19 01:12:35;;;;;;;0.70;0.70;;;1.50;99.90;;;;;;5059505;28;20537;-70
2023/04/19 01:15:38;;;;;;;0.90;0.90;;;1.50;99.90;;;;;;5054390;28;20200;-70
2023/04/19 01:18:42;;;;;;;0.70;0.70;;;1.50;99.90;;;;;;5072478;28;20227;-70
2023/04/19 01:21:45;;;;;;;0.80;0.80;;;1.40;99.90;;;;;;5072390;28;20208;-72
2023/04/19 01:24:48;;;;;;;0.75;0.75;;;1.40;99.90;;;;;;5072357;28;20279;-69
2023/04/19 01:27:51;;;;;;;0.70;0.70;;;1.30;99.90;;;;;;5072381;28;20188;-70
2023/04/19 01:30:57;;;;;;;0.70;0.70;;;1.20;99.90;;;;;;5072237;28;20196;-70
2023/04/19 01:34:00;;;;;;;0.80;0.80;;;1.10;99.90;;;;;;5072084;28;20563;-69
2023/04/19 01:37:07;;;;;;;0.75;0.75;;;1.00;99.90;;;;;;5054134;28;20659;-68
2023/04/19 01:40:10;;;;;;;0.90;0.90;;;1.00;99.90;;;;;;5072021;28;20215;-69
2023/04/19 01:43:13;;;;;;;0.80;0.80;;;1.20;99.90;;;;;;5072023;28;20215;-69
2023/04/19 01:46:16;;;;;;;0.80;0.80;;;1.30;99.90;;;;;;5071727;28;20201;-69
2023/04/19 01:49:19;;;;;;;0.70;0.70;;;1.40;99.90;;;;;;5071964;28;20192;-70
2023/04/19 01:52:22;;;;;;;0.70;0.70;;;1.40;99.90;;;;;;5054156;28;20678;-69
2023/04/19 01:55:26;;;;;;;0.90;0.90;;;1.40;99.90;;;;;;5054137;28;20197;-71
2023/04/19 01:58:29;;;;;;;0.70;0.70;;;1.60;99.90;;;;;;5071969;28;20682;-69
2023/04/19 02:01:32;;;;;;;0.63;0.63;;;1.70;99.90;;;;;;5053593;28;20577;-69
2023/04/19 02:04:38;;;;;;;0.77;0.77;;;1.70;99.90;;;;;;5090972;28;20323;-69
2023/04/19 02:07:42;;;;;;;0.80;0.80;;;1.60;99.90;;;;;;5096521;28;20682;-68
2023/04/19 02:10:45;;;;;;;0.75;0.75;;;1.60;99.90;;;;;;5094882;28;20743;-70
2023/04/19 02:13:48;;;;;;;0.80;0.80;;;1.70;99.90;;;;;;5096097;28;20750;-69
2023/04/19 02:16:51;;;;;;;0.70;0.70;;;2.00;99.90;;;;;;5095885;28;20199;-70
2023/04/19 02:19:55;;;;;;;0.80;0.80;;;2.20;99.90;;;;;;5095798;28;20203;-69
2023/04/19 02:23:05;;;;;;;0.70;0.70;;;2.20;99.90;;;;;;5077414;28;20200;-71
2023/04/19 02:26:16;;;;;;;0.77;0.77;;;2.30;99.90;;;;;;5095750;28;20188;-70
2023/04/19 02:29:22;;;;;;;0.73;0.73;;;2.20;99.90;;;;;;5077518;28;20200;-71
2023/04/19 02:32:30;;;;;;;0.70;0.70;;;2.10;99.90;;;;;;5076673;28;20218;-70
2023/04/19 02:35:35;;;;;;;0.80;0.80;;;1.90;99.90;;;;;;5076440;28;20222;-70
2023/04/19 02:38:43;;;;;;;0.70;0.70;;;1.90;99.90;;;;;;5075937;28;20204;-71
2023/04/19 02:41:46;;;;;;;1.05;1.05;;;1.70;99.90;;;;;;5074568;28;20215;-70
2023/04/19 02:44:50;;;;;;;0.77;0.77;;;1.80;99.90;;;;;;5095447;28;20196;-70
2023/04/19 02:47:53;;;;;;;0.80;0.80;;;2.00;99.90;;;;;;5077176;28;20208;-70
2023/04/19 02:50:56;;;;;;;0.80;0.80;;;2.00;99.90;;;;;;5095246;28;20594;-70
2023/04/19 02:53:59;;;;;;;0.60;0.60;;;2.10;99.90;;;;;;5095010;28;20199;-70
2023/04/19 02:57:02;;;;;;;0.95;0.70;;;2.00;99.90;;;;;;5094959;28;20192;-69
2023/04/19 03:00:09;;;;;;;0.70;0.70;;;1.90;99.90;;;;;;5094987;28;20302;-69
2023/04/19 03:03:12;;;;;;;0.60;0.60;;;1.90;99.90;;;;;;5064431;28;20228;-68
2023/04/19 03:06:16;;;;;;;0.70;0.70;;;2.00;99.90;;;;;;5073000;28;20212;-69
2023/04/19 03:09:19;;;;;;;0.60;0.60;;;2.10;99.90;;;;;;5073340;28;20280;-69
2023/04/19 03:12:22;;;;;;;0.70;0.70;;;2.20;99.90;;;;;;5089036;28;20235;-69
2023/04/19 03:15:25;;;;;;;0.80;0.80;;;2.50;99.90;;;;;;5094168;28;20195;-69
2023/04/19 03:18:29;;;;;;;0.80;0.80;;;2.80;99.90;;;;;;5094816;28;20188;-70
2023/04/19 03:21:32;;;;;;;0.77;0.77;;;2.80;99.90;;;;;;5056487;28;20216;-69
2023/04/19 03:24:35;;;;;;;0.70;0.70;;;2.90;99.90;;;;;;5085900;28;20617;-70
2023/04/19 03:27:38;;;;;;;0.77;0.77;;;2.90;99.90;;;;;;5094667;28;20194;-70
2023/04/19 03:30:42;;;;;;;0.77;0.77;;;2.90;99.90;;;;;;5094639;28;20230;-69
2023/04/19 03:33:45;;;;;;;0.80;0.80;;;3.10;99.90;;;;;;5076358;28;20740;-70
2023/04/19 03:36:49;;;;;;;0.70;0.70;;;3.10;99.90;;;;;;5076277;28;20273;-70
2023/04/19 03:39:52;;;;;;;0.80;0.80;;;3.20;99.90;;;;;;5074065;28;20205;-69
2023/04/19 03:42:55;;;;;;;0.90;0.90;;;3.30;99.90;;;;;;5056092;28;20238;-70
2023/04/19 03:45:58;;;;;;;0.65;0.65;;;3.40;99.90;;;;;;5073964;28;20249;-69
2023/04/19 03:49:01;;;;;;;0.68;0.68;;;3.60;99.90;;;;;;5073790;28;20192;-69
2023/04/19 03:52:06;;;;;;;0.70;0.70;;;3.70;99.90;;;;;;5055177;28;20742;-70
2023/04/19 03:55:12;;;;;;;0.80;0.80;;;3.80;99.90;;;;;;5055800;28;20713;-70
2023/04/19 03:58:16;;;;;;;0.70;0.70;;;3.90;99.90;;;;;;5073514;28;20296;-70
2023/04/19 04:01:19;;;;;;;0.70;0.70;;;4.00;99.90;;;;;;5080134;28;20208;-69
2023/04/19 04:04:22;;;;;;;0.70;0.70;;;4.10;99.90;;;;;;5093430;28;20304;-70
2023/04/19 04:07:26;;;;;;;0.70;0.70;;;4.20;99.90;;;;;;5093855;28;20199;-70
2023/04/19 04:10:30;;;;;;;0.70;0.70;;;4.30;99.90;;;;;;5093087;28;20660;-71
2023/04/19 04:13:33;;;;;;;0.80;0.80;;;4.30;99.90;;;;;;5093791;28;20291;-70
2023/04/19 04:16:37;;;;;;;0.80;0.80;;;4.40;99.90;;;;;;5093693;28;20667;-71
2023/04/19 04:19:40;;;;;;;0.70;0.70;;;4.50;99.90;;;;;;5075195;28;20211;-70
2023/04/19 04:22:46;;;;;;;0.70;0.70;;;4.60;99.90;;;;;;5075381;28;20220;-69
2023/04/19 04:25:49;;;;;;;0.70;0.70;;;4.60;99.90;;;;;;5075189;28;20694;-70
2023/04/19 04:29:00;;;;;;;0.80;0.80;;;4.70;99.90;;;;;;5093295;28;20658;-69
2023/04/19 04:32:07;;;;;;;0.80;0.80;;;4.80;99.90;;;;;;5093322;28;20706;-70
2023/04/19 04:35:16;;;;;;;0.77;0.77;;;4.80;99.90;;;;;;5060940;28;20201;-71
2023/04/19 04:38:23;;;;;;;0.70;0.70;;;4.80;99.90;;;;;;5054860;28;20752;-70
2023/04/19 04:41:26;;;;;;;1.20;1.10;;;4.80;99.90;;;;;;5055032;28;20357;-69
2023/04/19 04:44:34;;;;;;;0.70;0.70;;;4.80;99.90;;;;;;5073249;28;20556;-70
2023/04/19 04:47:41;;;;;;;0.70;0.70;;;4.80;99.90;;;;;;5055133;28;20204;-70
2023/04/19 04:50:44;;;;;;;0.80;0.80;;;4.90;99.90;;;;;;5072942;28;20201;-70
2023/04/19 04:53:47;;;;;;;0.70;0.70;;;4.90;99.90;;;;;;5067170;28;20222;-71
2023/04/19 04:56:57;;;;;;;0.80;0.80;;;4.90;99.90;;;;;;5074074;28;20215;-70
2023/04/19 05:00:00;;;;;;;0.80;0.80;;;4.90;99.90;;;;;;5074446;28;20220;-71
2023/04/19 05:03:06;;;;;;;0.70;0.70;;;4.90;99.90;;;;;;5092523;28;20588;-71
2023/04/19 05:06:10;;;;;;;0.70;0.70;;;5.00;99.90;;;;;;5074892;28;20587;-71
2023/04/19 05:09:17;;;;;;;0.60;0.60;;;5.10;99.90;;;;;;5054653;28;20231;-71
2023/04/19 05:12:29;;;;;;;0.63;0.63;;;5.20;99.90;;;;;;5079602;28;20206;-71
2023/04/19 05:15:35;;;;;;;0.70;0.70;;;5.20;99.90;;;;;;5092598;28;20187;-70
2023/04/19 05:18:38;;;;;;;0.70;0.70;;;5.30;99.90;;;;;;5072478;28;20567;-70
2023/04/19 05:21:41;;;;;;;0.70;0.70;;;5.30;99.90;;;;;;5072271;28;20208;-70
2023/04/19 05:24:46;;;;;;;0.70;0.70;;;5.30;99.90;;;;;;5054379;28;20204;-70
2023/04/19 05:27:51;;;;;;;0.70;0.70;;;5.40;99.90;;;;;;5072440;28;20605;-71
2023/04/19 05:30:55;;;;;;;0.70;0.70;;;5.40;99.90;;;;;;5063652;28;20555;-71
2023/04/19 05:33:58;;;;;;;0.68;0.68;;;5.40;99.90;;;;;;5092347;28;20204;-71
2023/04/19 05:37:01;;;;;;;0.70;0.70;;;5.40;99.90;;;;;;5092318;28;20206;-71
2023/04/19 05:40:04;;;;;;;0.70;0.70;;;5.40;99.90;;;;;;5096737;28;20259;-71
2023/04/19 05:43:10;;;;;;;0.70;0.70;;;5.40;99.90;;;;;;5096566;28;20257;-70
2023/04/19 05:46:16;;;;;;;0.80;0.80;;;5.50;99.90;;;;;;5096480;28;20236;-71
2023/04/19 05:49:32;;;;;;;0.60;0.60;;;5.50;99.90;;;;;;5071352;28;20200;-73
2023/04/19 05:52:41;;;;;;;0.70;0.70;;;5.50;99.90;;;;;;5076337;28;20606;-71
2023/04/19 05:55:59;;;;;;;0.70;0.70;;;5.60;99.90;;;;;;5057760;28;20204;-71
2023/04/19 05:59:02;;;;;;;0.70;0.70;;;5.70;99.90;;;;;;5075910;28;20200;-71
2023/04/19 06:02:09;;;;;;;0.70;0.70;;;5.70;99.90;;;;;;5057652;28;20209;-71
2023/04/19 06:05:13;;;;;;;0.73;0.73;;;5.80;99.90;;;;;;5063574;28;20212;-70
2023/04/19 06:08:18;;;;;;;0.68;0.68;;;5.80;99.90;;;;;;5062267;28;20206;-71
2023/04/19 06:11:22;;;;;;;1.85;1.50;;;5.90;99.90;;;;;;5095893;28;20196;-70
2023/04/19 06:14:25;;;;;;;0.70;0.70;;;6.00;99.90;;;;;;5057604;28;20200;-70
2023/04/19 06:17:33;;;;;;;0.70;0.70;;;6.00;99.90;;;;;;5057931;28;20257;-70
2023/04/19 06:20:43;;;;;;;1.55;1.05;;;6.10;99.90;;;;;;5058030;28;20208;-71
2023/04/19 06:23:49;;;;;;;0.70;0.70;;;6.20;99.90;;;;;;5058242;28;20280;-70
2023/04/19 06:26:57;;;;;;;0.80;0.80;;;6.30;99.90;;;;;;5065183;28;20333;-71
2023/04/19 06:30:00;;;;;;;0.70;0.70;;;6.40;99.90;;;;;;5095341;28;20192;-71
2023/04/19 06:33:03;;;;;;;0.70;0.70;;;6.50;99.90;;;;;;5095509;28;20192;-71
2023/04/19 06:36:06;;;;;;;0.70;0.70;;;6.70;99.90;;;;;;5095365;28;20210;-71
2023/04/19 06:39:11;;;;;;;0.60;0.60;;;6.90;99.90;;;;;;5095345;28;20210;-71
2023/04/19 06:42:14;;;;;;;0.70;0.70;;;7.10;99.90;;;;;;5095309;28;20611;-71
2023/04/19 06:45:21;;;;;;;0.75;0.75;;;7.30;99.90;;;;;;5095220;28;20204;-71
2023/04/19 06:48:28;;;;;;;0.60;0.60;;;7.60;99.90;;;;;;5095334;28;20662;-71
2023/04/19 06:51:34;;;;;;;0.70;0.70;;;7.90;99.90;;;;;;5094261;28;20251;-70
2023/04/19 06:54:37;;;;;;;0.60;0.60;;;8.20;99.90;;;;;;5095202;28;20677;-71
2023/04/19 06:57:42;;;;;;;0.65;0.65;;;8.50;99.90;;;;;;5076700;28;20230;-71
2023/04/19 07:00:45;;;;;;;0.70;0.70;;;8.70;99.90;;;;;;5095047;28;20215;-71
2023/04/19 07:03:54;;;;;;;0.60;0.60;;;9.00;99.90;;;;;;5094607;28;20230;-69
2023/04/19 07:07:01;;;;;;;0.60;0.60;;;9.40;99.90;;;;;;5056475;28;20205;-71
2023/04/19 07:10:07;;;;;;;0.60;0.60;;;9.40;99.90;;;;;;5089893;28;20723;-70
2023/04/19 07:13:10;;;;;;;0.70;0.70;;;9.30;99.90;;;;;;5094658;28;20203;-70
2023/04/19 07:16:14;;;;;;;0.60;0.60;;;9.20;99.90;;;;;;5076442;28;20200;-70
2023/04/19 07:19:19;;;;;;;0.60;0.60;;;9.30;99.90;;;;;;5076271;28;20204;-71
2023/04/19 07:22:22;;;;;;;0.60;0.60;;;9.50;99.90;;;;;;5094358;28;20219;-70
2023/04/19 07:25:29;;;;;;;0.60;0.60;;;9.50;99.90;;;;;;5094581;28;20635;-71
2023/04/19 07:28:35;;;;;;;0.60;0.60;;;9.70;99.90;;;;;;5094595;28;20195;-70
2023/04/19 07:31:40;;;;;;;0.60;0.60;;;9.80;99.90;;;;;;5094514;28;20196;-71
2023/04/19 07:34:44;;;;;;;0.70;0.70;;;9.90;99.90;;;;;;5094178;28;20573;-71
2023/04/19 07:37:47;;;;;;;0.60;0.60;;;10.10;99.90;;;;;;5094327;28;20207;-71
2023/04/19 07:40:51;;;;;;;0.60;0.60;;;10.40;99.90;;;;;;5094068;28;20264;-71
2023/04/19 07:43:54;;;;;;;0.63;0.63;;;10.70;99.90;;;;;;5094289;28;20556;-71
2023/04/19 07:47:00;;;;;;;0.60;0.60;;;11.00;99.90;;;;;;5092562;28;20199;-72
2023/04/19 07:50:06;;;;;;;0.60;0.60;;;11.10;99.90;;;;;;5093941;28;20207;-71
2023/04/19 07:53:17;;;;;;;0.60;0.60;;;11.40;99.90;;;;;;5093851;28;20192;-71
2023/04/19 07:56:25;;;;;;;0.60;0.60;;;11.60;99.90;;;;;;5094033;28;20203;-70
2023/04/19 07:59:29;;;;;;;0.60;0.60;;;11.80;99.70;;;;;;5093901;28;20666;-71
2023/04/19 08:02:32;;;;;;;0.50;0.50;;;11.90;99.50;;;;;;5093277;28;20650;-71
2023/04/19 08:05:36;;;;;;;0.60;0.60;;;12.30;98.00;;;;;;5093478;28;20192;-71
2023/04/19 08:08:39;;;;;;;0.50;0.50;;;12.30;97.80;;;;;;5093618;28;20192;-71
2023/04/19 08:11:46;;;;;;;0.50;0.50;;;12.40;97.30;;;;;;5074210;28;20215;-71
2023/04/19 08:14:49;;;;;;;0.60;0.60;;;12.70;97.90;;;;;;5093607;28;20200;-71
2023/04/19 08:17:53;;;;;;;0.50;0.50;;;13.10;96.10;;;;;;5074931;28;20756;-71
2023/04/19 08:20:57;;;;;;;0.47;0.47;;;13.20;94.90;;;;;;5073064;28;20278;-71
2023/04/19 08:24:01;;;;;;;0.50;0.50;;;12.90;96.20;;;;;;5073020;28;20584;-71
2023/04/19 08:27:04;;;;;;;0.50;0.50;;;13.00;94.80;;;;;;5072893;28;20200;-71
2023/04/19 08:30:08;;;;;;;0.50;0.50;;;13.00;94.00;;;;;;5072896;28;20592;-72
2023/04/19 08:33:11;;;;;;;0.60;0.60;;;13.30;95.20;;;;;;5054448;28;20584;-71
2023/04/19 08:36:15;;;;;;;0.50;0.50;;;13.70;95.00;;;;;;5072774;28;20197;-72
2023/04/19 08:39:21;;;;;;;0.40;0.40;;;14.10;92.80;;;;;;5054807;28;20212;-72
2023/04/19 08:42:25;;;;;;;0.60;0.60;;;14.10;93.00;;;;;;5078145;28;20249;-71
2023/04/19 08:45:29;;;;;;;0.40;0.40;;;14.50;93.00;;;;;;5093105;28;20207;-72
2023/04/19 08:48:32;;;;;;;0.40;0.40;;;14.60;91.40;;;;;;5093036;28;20184;-72
2023/04/19 08:51:36;;;;;;;0.40;0.40;;;14.70;91.80;;;;;;5093037;28;20238;-73
2023/04/19 08:54:39;;;;;;;0.60;0.60;;;14.90;90.80;;;;;;5092845;28;20199;-71
2023/04/19 08:57:47;;;;;;;0.40;0.40;;;15.10;90.00;;;;;;5074071;28;20215;-72
2023/04/19 09:00:50;;;;;;;0.30;0.30;;;15.40;86.60;;;;;;5092533;28;20218;-73
2023/04/19 09:03:53;;;;;;;0.38;0.38;;;15.50;85.50;;;;;;5074267;28;20227;-75
2023/04/19 09:06:56;;;;;;;0.40;0.40;;;15.40;85.80;;;;;;5072271;28;20229;-74
2023/04/19 09:09:59;;;;;;;0.30;0.30;;;15.40;85.60;;;;;;5072259;28;20196;-72
2023/04/19 09:13:02;;;;;;;0.30;0.30;;;15.80;85.10;;;;;;5071879;28;20260;-75
2023/04/19 09:16:06;;;;;;;0.30;0.30;;;16.20;87.10;;;;;;5083185;28;20200;-73
2023/04/19 09:19:11;;;;;;;0.52;0.52;;;16.20;83.00;;;;;;5092423;28;20223;-73
2023/04/19 09:22:14;;;;;;;0.40;0.40;;;16.50;83.90;;;;;;5091050;28;20200;-73
2023/04/19 09:25:17;;;;;;;0.30;0.30;;;16.50;82.10;;;;;;5092308;28;20199;-73
2023/04/19 09:28:20;;;;;;;0.30;0.30;;;16.50;81.30;;;;;;5092261;28;20224;-73
2023/04/19 09:31:24;;;;;;;0.30;0.30;;;16.60;82.20;;;;;;5092560;28;20324;-72
2023/04/19 09:34:29;;;;;;;0.38;0.38;;;16.80;80.30;;;;;;5091158;28;20230;-73
2023/04/19 09:37:32;;;;;;;0.40;0.40;;;16.60;80.80;;;;;;5092402;28;20214;-73
2023/04/19 09:40:35;;;;;;;0.40;0.40;;;16.70;79.70;;;;;;5068312;28;20204;-73
2023/04/19 09:43:38;;;;;;;0.30;0.30;;;16.90;80.30;;;;;;5072207;28;20193;-73
2023/04/19 09:46:42;;;;;;;0.30;0.30;;;16.90;78.60;;;;;;5054044;28;20667;-73
2023/04/19 09:49:45;;;;;;;0.30;0.30;;;17.50;79.40;;;;;;5072141;28;20192;-74
2023/04/19 09:52:48;;;;;;;0.30;0.30;;;18.20;78.80;;;;;;5072650;28;20201;-74
2023/04/19 09:55:51;;;;;;;0.20;0.20;;;18.60;75.30;;;;;;5092150;28;20553;-74
2023/04/19 09:58:54;;;;;;;0.20;0.20;;;18.50;75.30;;;;;;5092133;28;20677;-75
2023/04/19 10:01:57;;;;;;;0.30;0.30;;;18.40;73.80;;;;;;5073640;28;20211;-72
2023/04/19 10:05:00;;;;;;;0.40;0.40;;;17.90;72.80;;;;;;5063677;28;20233;-79
2023/04/19 10:08:03;;;;;;;0.30;0.30;;;17.70;76.70;;;;;;5051664;28;20303;-73
2023/04/19 10:11:35;;;;;;;0.30;0.30;;;17.50;75.20;;;;;;5052981;28;20213;-75
2023/04/19 10:18:20;;;;;;;0.30;0.30;;;17.40;75.70;;;;;;5010026;28;20207;-78
2023/04/19 10:21:26;;;;;;;0.20;0.20;;;18.00;73.70;;;;;;5010744;28;20217;-77
2023/04/19 10:24:29;;;;;;;0.20;0.20;;;18.20;77.00;;;;;;4993937;28;20214;-76
2023/04/19 10:27:10;;;;;;;0.30;0.30;;;18.40;73.50;;;;;;5014149;28;20677;-77
2023/04/19 10:29:58;;;;;;;0.20;0.20;;;18.60;72.30;;;;;;5013804;28;20214;-78
2023/04/19 10:32:41;;;;;;;0.30;0.30;;;18.50;73.70;;;;;;5014581;28;20246;-77
2023/04/19 10:35:32;;;;;;;0.32;0.32;;;18.40;72.00;;;;;;5026554;28;20222;-77
2023/04/19 10:38:10;;;;;;;0.20;0.20;;;18.60;72.30;;;;;;5034427;28;20213;-78
2023/04/19 10:40:59;;;;;;;0.20;0.20;;;18.70;72.30;;;;;;5033622;28;20208;-76
2023/04/19 10:43:33;;;;;;;0.20;0.20;;;18.80;72.50;;;;;;5033810;28;20194;-77
2023/04/19 10:46:12;;;;;;;0.30;0.30;;;18.90;70.60;;;;;;5033711;28;20751;-76
2023/04/19 10:48:52;;;;;;;0.30;0.30;;;19.20;71.70;;;;;;5048193;28;20301;-77
2023/04/19 10:51:19;;;;;;;0.20;0.20;;;19.90;71.30;;;;;;5075767;28;20199;-75
2023/04/19 10:53:48;;;;;;;0.20;0.20;;;20.30;69.60;;;;;;5075611;28;20197;-74
2023/04/19 10:56:19;;;;;;;0.20;0.20;;;20.10;68.80;;;;;;5075439;28;20192;-73
2023/04/19 10:59:00;;;;;;;0.30;0.30;;;20.30;69.00;;;;;;5075181;28;20280;-75
2023/04/19 11:01:44;;;;;;;0.20;0.20;;;20.60;70.20;;;;;;5074995;28;20225;-76
2023/04/19 11:04:43;;;;;;;0.20;0.20;;;20.70;65.30;;;;;;5068641;28;20221;-75
2023/04/19 11:07:09;;;;;;;0.20;0.20;;;20.70;65.80;;;;;;5058612;28;20204;-74
2023/04/19 11:09:44;;;;;;;0.43;0.43;;;20.40;66.50;;;;;;5074843;28;20195;-74
2023/04/19 11:12:16;;;;;;;0.20;0.20;;;20.40;67.70;;;;;;5075089;28;20326;-75
2023/04/19 11:14:44;;;;;;;0.20;0.20;;;20.20;67.30;;;;;;5074877;28;20675;-75
2023/04/19 11:17:26;;;;;;;0.20;0.20;;;19.70;67.60;;;;;;5075084;28;20207;-75
2023/04/19 11:20:05;;;;;;;0.20;0.20;;;20.10;69.30;;;;;;5057010;28;20212;-75
2023/04/19 11:22:32;;;;;;;0.20;0.20;;;20.60;65.20;;;;;;5074851;28;20192;-76
2023/04/19 11:25:21;;;;;;;0.10;0.10;;;20.50;66.50;;;;;;5075076;28;20565;-76
2023/04/19 11:27:51;;;;;;;0.20;0.20;;;20.80;69.20;;;;;;5075150;28;20303;-76
2023/04/19 11:30:21;;;;;;;0.68;0.68;;;21.30;65.10;;;;;;5074751;28;20199;-75
2023/04/19 11:32:57;;;;;;;0.20;0.20;;;21.10;66.10;;;;;;5074983;28;20197;-74
2023/04/19 11:35:27;;;;;;;0.30;0.30;;;21.50;66.80;;;;;;5073999;28;20223;-74
2023/04/19 11:37:55;;;;;;;0.20;0.20;;;21.80;63.50;;;;;;5074370;28;20769;-75
2023/04/19 11:40:22;;;;;;;0.28;0.28;;;22.00;66.80;;;;;;5074197;28;20578;-77
2023/04/19 11:42:59;;;;;;;0.20;0.20;;;21.90;65.40;;;;;;5074315;28;20196;-76
2023/04/19 11:45:31;;;;;;;0.20;0.20;;;21.50;64.00;;;;;;5074078;28;20275;-77
2023/04/19 11:48:00;;;;;;;0.20;0.20;;;21.50;64.80;;;;;;5074727;28;20192;-75
2023/04/19 11:50:35;;;;;;;0.20;0.20;;;21.10;65.30;;;;;;5055990;28;20208;-76
2023/04/19 11:53:21;;;;;;;0.35;0.35;;;21.10;63.80;;;;;;5074658;28;20234;-74
2023/04/19 11:56:06;;;;;;;0.10;0.10;;;21.20;64.30;;;;;;5074668;28;20192;-74
2023/04/19 11:58:43;;;;;;;0.20;0.20;;;21.70;63.90;;;;;;5056381;28;20608;-78
2023/04/19 12:01:14;;;;;;;0.20;0.20;;;22.20;64.50;;;;;;5074202;28;20207;-77
2023/04/19 12:03:48;;;;;;;0.20;0.20;;;22.40;59.30;;;;;;5073331;28;20228;-76
2023/04/19 12:06:23;;;;;;;0.20;0.20;;;22.00;60.80;;;;;;5056283;28;20196;-77
2023/04/19 12:08:51;;;;;;;0.47;0.43;;;21.30;59.90;;;;;;5074125;28;20188;-75
2023/04/19 12:11:18;;;;;;;0.55;0.52;;;20.70;62.00;;;;;;5074071;28;20204;-76
2023/04/19 12:13:48;;;;;;;0.20;0.20;;;20.80;65.80;;;;;;5055977;28;20193;-74
2023/04/19 12:16:26;;;;;;;0.20;0.20;;;21.30;64.60;;;;;;5074214;28;20209;-76
2023/04/19 12:18:52;;;;;;;0.20;0.20;;;21.50;62.00;;;;;;5074245;28;20193;-77
2023/04/19 12:21:30;;;;;;;0.20;0.20;;;21.30;64.10;;;;;;5074066;28;20567;-74
2023/04/19 12:23:58;;;;;;;0.20;0.20;;;21.30;62.40;;;;;;5056059;28;20562;-75
2023/04/19 12:26:27;;;;;;;0.20;0.20;;;21.20;62.00;;;;;;5073467;28;20199;-74
2023/04/19 12:28:57;;;;;;;0.20;0.20;;;21.50;62.10;;;;;;5073355;28;20276;-75
2023/04/19 12:31:26;;;;;;;0.40;0.40;;;21.10;60.30;;;;;;5072860;28;20690;-74
2023/04/19 12:33:53;;;;;;;0.30;0.30;;;21.60;62.60;;;;;;5073882;28;20192;-74
2023/04/19 12:36:22;;;;;;;0.15;0.15;;;21.30;61.60;;;;;;5074169;28;20248;-74
2023/04/19 12:38:48;;;;;;;0.20;0.20;;;21.00;61.10;;;;;;5054566;28;20213;-75
2023/04/19 12:41:13;;;;;;;0.20;0.20;;;20.90;61.90;;;;;;5054445;28;20211;-74
2023/04/19 12:43:39;;;;;;;0.20;0.20;;;21.20;62.60;;;;;;5073413;28;20201;-73
2023/04/19 12:46:05;;;;;;;1.00;0.52;;;21.40;60.00;;;;;;5055644;28;20619;-74
2023/04/19 12:48:31;;;;;;;0.20;0.20;;;21.60;61.00;;;;;;5072681;28;20275;-74
2023/04/19 12:50:57;;;;;;;0.20;0.20;;;21.30;61.30;;;;;;5056273;28;20204;-76
2023/04/19 12:53:23;;;;;;;0.20;0.20;;;21.70;62.10;;;;;;5073397;28;20192;-74
2023/04/19 12:55:50;;;;;;;0.20;0.20;;;22.20;60.60;;;;;;5055542;28;20200;-73
2023/04/19 12:58:17;;;;;;;0.30;0.30;;;21.70;60.90;;;;;;5073358;28;20686;-74
2023/04/19 13:00:43;;;;;;;0.20;0.20;;;21.50;61.80;;;;;;5054761;28;20204;-74
2023/04/19 13:03:09;;;;;;;0.20;0.20;;;21.20;63.10;;;;;;5092705;28;20261;-73
2023/04/19 13:05:35;;;;;;;0.20;0.20;;;21.40;63.80;;;;;;5095189;28;20187;-73
2023/04/19 13:08:01;;;;;;;0.15;0.15;;;21.50;60.70;;;;;;5093290;28;20286;-75
2023/04/19 13:10:26;;;;;;;0.20;0.20;;;21.40;60.90;;;;;;5093077;28;20283;-75
2023/04/19 13:12:52;;;;;;;0.20;0.20;;;21.10;62.30;;;;;;5092704;28;20200;-75
2023/04/19 13:15:18;;;;;;;0.45;0.45;;;21.40;62.40;;;;;;5093327;28;20188;-75
2023/04/19 13:17:47;;;;;;;0.22;0.22;;;21.60;61.10;;;;;;5074072;28;20269;-75
2023/04/19 13:20:13;;;;;;;0.20;0.20;;;21.30;61.70;;;;;;5074987;28;20678;-75
2023/04/19 13:22:41;;;;;;;0.20;0.20;;;21.10;61.20;;;;;;5094936;28;20192;-75
2023/04/19 13:25:08;;;;;;;0.20;0.20;;;21.10;62.40;;;;;;5113646;28;20187;-75
2023/04/19 13:27:33;;;;;;;0.20;0.20;;;21.20;60.20;;;;;;5094435;28;20203;-75
2023/04/19 13:29:59;;;;;;;0.20;0.20;;;20.60;60.00;;;;;;5113266;28;20226;-76
2023/04/19 13:32:25;;;;;;;0.20;0.20;;;20.40;61.20;;;;;;5094907;28;20226;-75
2023/04/19 13:34:57;;;;;;;0.20;0.20;;;20.50;62.10;;;;;;5095123;28;20403;-75
2023/04/19 13:37:23;;;;;;;0.30;0.30;;;20.70;62.50;;;;;;5113066;28;20226;-74
2023/04/19 13:39:48;;;;;;;0.20;0.20;;;20.80;61.60;;;;;;5113313;28;20646;-74
2023/04/19 13:42:14;;;;;;;0.20;0.20;;;21.20;61.00;;;;;;5105724;28;20192;-74
2023/04/19 13:44:43;;;;;;;0.20;0.20;;;20.60;60.90;;;;;;5092698;28;20192;-75
2023/04/19 13:47:11;;;;;;;0.20;0.20;;;20.50;63.10;;;;;;5093028;28;20199;-75
2023/04/19 13:49:36;;;;;;;0.20;0.20;;;21.00;62.90;;;;;;5092490;28;20253;-75
2023/04/19 13:52:05;;;;;;;0.20;0.20;;;21.00;62.10;;;;;;5074864;28;20200;-75
2023/04/19 13:54:31;;;;;;;0.20;0.20;;;20.80;60.90;;;;;;5092081;28;20245;-75
2023/04/19 13:56:56;;;;;;;0.40;0.40;;;20.80;62.00;;;;;;5092691;28;20196;-74
2023/04/19 13:59:24;;;;;;;0.20;0.20;;;20.90;60.30;;;;;;5094984;28;20188;-74
2023/04/19 14:01:54;;;;;;;0.20;0.20;;;20.50;61.60;;;;;;5096889;28;20230;-75
2023/04/19 14:04:20;;;;;;;0.20;0.20;;;20.20;61.50;;;;;;5088731;28;20288;-75
2023/04/19 14:06:47;;;;;;;0.20;0.20;;;20.00;64.10;;;;;;5076574;28;20223;-75
2023/04/19 14:09:13;;;;;;;0.20;0.20;;;19.90;64.00;;;;;;5076452;28;20196;-75
2023/04/19 14:11:42;;;;;;;0.20;0.20;;;20.00;62.80;;;;;;5058279;28;20655;-75
2023/04/19 14:14:07;;;;;;;0.20;0.20;;;19.90;61.80;;;;;;5076272;28;20666;-75
2023/04/19 14:16:33;;;;;;;0.20;0.20;;;19.80;63.30;;;;;;5058136;28;20197;-74
2023/04/19 14:18:59;;;;;;;0.28;0.28;;;20.20;61.80;;;;;;5076157;28;20211;-75
2023/04/19 14:21:26;;;;;;;0.20;0.20;;;20.50;63.70;;;;;;5058146;28;20690;-75
2023/04/19 14:23:52;;;;;;;0.20;0.20;;;20.50;61.50;;;;;;5075933;28;20191;-74
2023/04/19 14:26:17;;;;;;;0.20;0.20;;;20.10;63.00;;;;;;5075999;28;20189;-75
2023/04/19 14:28:43;;;;;;;0.20;0.20;;;20.00;63.90;;;;;;5075980;28;20193;-75
2023/04/19 14:31:09;;;;;;;0.20;0.20;;;19.90;63.60;;;;;;5075625;28;20262;-75
2023/04/19 14:33:35;;;;;;;0.20;0.20;;;19.70;63.30;;;;;;5075368;28;20719;-75
2023/04/19 14:36:00;;;;;;;0.20;0.20;;;19.60;62.70;;;;;;5075373;28;20659;-75
2023/04/19 14:38:26;;;;;;;0.20;0.20;;;19.50;64.10;;;;;;5075694;28;20279;-75
2023/04/19 14:40:55;;;;;;;0.38;0.38;;;19.40;63.90;;;;;;5075869;28;20197;-74
2023/04/19 14:43:21;;;;;;;0.20;0.20;;;19.30;63.60;;;;;;5075632;28;20656;-75
2023/04/19 14:45:55;;;;;;;0.25;0.25;;;18.90;63.70;;;;;;5075839;28;20196;-74
2023/04/19 14:48:21;;;;;;;0.20;0.20;;;18.70;63.60;;;;;;5075444;28;20201;-75
2023/04/19 14:50:47;;;;;;;0.20;0.20;;;18.40;64.40;;;;;;5075677;28;20342;-74
2023/04/19 14:53:13;;;;;;;0.20;0.20;;;18.40;65.80;;;;;;5062539;28;20193;-74
2023/04/19 14:55:39;;;;;;;0.25;0.25;;;18.20;65.20;;;;;;5055328;28;20204;-74
2023/04/19 14:58:05;;;;;;;0.20;0.20;;;18.00;65.90;;;;;;5037667;28;20280;-75
2023/04/19 15:00:31;;;;;;;0.20;0.20;;;17.80;66.60;;;;;;5055449;28;20616;-74
2023/04/19 15:02:57;;;;;;;0.30;0.30;;;17.70;66.40;;;;;;5055544;28;20233;-74
2023/04/19 15:05:28;;;;;;;0.63;0.63;;;17.90;69.00;;;;;;5055096;28;20197;-74